createdAt,value
2019-02-17T00:00:46.942Z,23.60
2019-02-17T00:03:23.473Z,23.60
2019-02-17T00:05:59.788Z,23.60
2019-02-17T00:08:37.470Z,23.70
2019-02-17T00:11:14.015Z,23.70
2019-02-17T00:13:51.494Z,23.60
2019-02-17T00:16:27.782Z,23.70
2019-02-17T00:19:04.943Z,23.80
2019-02-17T00:21:43.463Z,23.80
2019-02-17T00:24:20.368Z,23.90
2019-02-17T00:26:57.388Z,23.90
2019-02-17T00:29:34.111Z,23.80
2019-02-17T00:32:11.356Z,23.80
2019-02-17T00:34:48.729Z,24.00
2019-02-17T00:37:27.115Z,24.00
2019-02-17T00:40:03.927Z,24.10
2019-02-17T00:42:41.194Z,24.10
2019-02-17T00:45:17.587Z,24.10
2019-02-17T00:47:54.278Z,24.20
2019-02-17T00:50:31.080Z,24.20
2019-02-17T00:53:08.411Z,24.30
2019-02-17T00:55:44.929Z,24.20
2019-02-17T00:58:22.046Z,24.20
2019-02-17T01:00:58.677Z,24.30
2019-02-17T01:03:35.780Z,24.50
2019-02-17T01:06:12.718Z,24.60
2019-02-17T01:08:49.294Z,24.70
2019-02-17T01:11:25.741Z,24.80
2019-02-17T01:14:02.571Z,24.80
2019-02-17T01:16:39.484Z,24.80
2019-02-17T01:19:16.164Z,24.80
2019-02-17T01:21:52.506Z,24.90
2019-02-17T01:24:29.298Z,25.00
2019-02-17T01:27:06.056Z,25.00
2019-02-17T01:29:41.927Z,25.00
2019-02-17T01:32:18.753Z,25.10
2019-02-17T01:34:55.617Z,25.30
2019-02-17T01:37:32.794Z,25.20
2019-02-17T01:40:11.102Z,25.40
2019-02-17T01:42:47.845Z,25.40
2019-02-17T01:45:25.456Z,25.60
2019-02-17T01:48:02.311Z,25.70
2019-02-17T01:50:38.422Z,26.00
2019-02-17T01:53:15.004Z,26.10
2019-02-17T01:55:52.155Z,26.30
2019-02-17T01:58:28.051Z,26.10
2019-02-17T02:01:04.983Z,26.00
2019-02-17T02:03:41.955Z,25.80
2019-02-17T02:06:25.983Z,25.80
2019-02-17T02:09:02.674Z,25.90
2019-02-17T02:11:40.948Z,26.20
2019-02-17T02:14:17.754Z,26.10
2019-02-17T02:16:54.945Z,26.40
2019-02-17T02:19:31.906Z,26.70
2019-02-17T02:22:08.339Z,26.90
2019-02-17T02:24:45.238Z,26.90
2019-02-17T02:27:21.848Z,27.00
2019-02-17T02:29:58.794Z,26.70
2019-02-17T02:32:35.469Z,26.80
2019-02-17T02:35:12.810Z,26.90
2019-02-17T02:37:49.807Z,26.90
2019-02-17T02:40:26.317Z,27.00
2019-02-17T02:43:02.974Z,26.50
2019-02-17T02:45:39.112Z,26.90
2019-02-17T02:48:15.813Z,27.10
2019-02-17T02:50:53.135Z,27.30
2019-02-17T02:53:30.328Z,27.50
2019-02-17T02:56:07.089Z,27.40
2019-02-17T02:58:43.990Z,27.80
2019-02-17T03:01:20.649Z,28.00
2019-02-17T03:03:57.593Z,28.00
2019-02-17T03:07:01.757Z,28.10
2019-02-17T03:09:38.835Z,28.00
2019-02-17T03:12:15.729Z,28.00
2019-02-17T03:14:52.515Z,28.00
2019-02-17T03:17:29.347Z,28.20
2019-02-17T03:20:06.182Z,28.20
2019-02-17T03:22:43.247Z,28.20
2019-02-17T03:25:19.957Z,28.60
2019-02-17T03:27:56.935Z,29.20
2019-02-17T03:30:33.484Z,29.50
2019-02-17T03:33:13.676Z,29.10
2019-02-17T03:35:53.883Z,28.80
2019-02-17T03:38:34.264Z,28.50
2019-02-17T03:41:17.302Z,28.70
2019-02-17T03:43:54.177Z,28.50
2019-02-17T03:46:33.386Z,28.20
2019-02-17T03:49:12.407Z,28.20
2019-02-17T03:51:49.008Z,28.50
2019-02-17T03:54:25.705Z,28.30
2019-02-17T03:57:01.731Z,28.20
2019-02-17T03:59:39.390Z,28.50
2019-02-17T04:02:17.843Z,28.80
2019-02-17T04:04:55.599Z,29.20
2019-02-17T04:07:32.188Z,29.70
2019-02-17T04:10:10.714Z,29.70
2019-02-17T04:12:48.527Z,29.30
2019-02-17T04:15:25.455Z,29.30
2019-02-17T04:18:03.421Z,30.00
2019-02-17T04:20:41.021Z,30.00
2019-02-17T04:23:17.908Z,29.90
2019-02-17T04:25:58.148Z,29.80
2019-02-17T04:28:34.705Z,29.90
2019-02-17T04:31:12.070Z,29.80
2019-02-17T04:33:48.959Z,29.70
2019-02-17T04:36:26.112Z,29.80
2019-02-17T04:39:02.781Z,30.00
2019-02-17T04:41:41.209Z,30.30
2019-02-17T04:44:17.778Z,29.90
2019-02-17T04:46:54.929Z,29.90
2019-02-17T04:49:31.492Z,30.10
2019-02-17T04:52:08.239Z,30.10
2019-02-17T04:54:46.037Z,29.70
2019-02-17T04:57:22.906Z,29.50
2019-02-17T04:59:59.420Z,29.50
2019-02-17T05:02:36.229Z,29.60
2019-02-17T05:05:12.764Z,29.60
2019-02-17T05:07:50.107Z,29.70
2019-02-17T05:10:26.957Z,29.60
2019-02-17T05:13:04.022Z,29.60
2019-02-17T05:15:40.832Z,29.60
2019-02-17T05:18:17.567Z,29.30
2019-02-17T05:20:54.201Z,29.30
2019-02-17T05:23:31.203Z,29.10
2019-02-17T05:26:08.007Z,29.00
2019-02-17T05:28:45.072Z,28.90
2019-02-17T05:31:22.876Z,28.70
2019-02-17T05:33:59.774Z,28.70
2019-02-17T05:36:36.408Z,28.50
2019-02-17T05:39:13.280Z,28.40
2019-02-17T05:41:50.121Z,28.30
2019-02-17T05:44:27.243Z,28.20
2019-02-17T05:47:03.761Z,28.10
2019-02-17T05:49:39.951Z,27.90
2019-02-17T05:52:16.318Z,27.80
2019-02-17T05:54:52.867Z,27.70
2019-02-17T05:57:28.956Z,27.50
2019-02-17T06:00:10.501Z,27.40
2019-02-17T06:02:47.295Z,27.30
2019-02-17T06:05:24.462Z,27.20
2019-02-17T06:08:01.229Z,27.10
2019-02-17T06:10:38.402Z,26.90
2019-02-17T06:13:15.433Z,26.70
2019-02-17T06:15:52.989Z,26.60
2019-02-17T06:18:30.090Z,26.40
2019-02-17T06:21:08.072Z,26.40
2019-02-17T06:23:45.804Z,26.40
2019-02-17T06:26:22.935Z,26.40
2019-02-17T06:28:59.381Z,26.60
2019-02-17T06:31:36.840Z,26.60
2019-02-17T06:34:14.005Z,26.70
2019-02-17T06:36:50.741Z,26.80
2019-02-17T06:39:28.690Z,27.10
2019-02-17T06:42:05.817Z,27.30
2019-02-17T06:44:42.542Z,27.50
2019-02-17T06:47:24.028Z,27.50
2019-02-17T06:50:00.799Z,27.70
2019-02-17T06:52:37.827Z,27.80
2019-02-17T06:55:24.803Z,27.70
2019-02-17T06:58:01.718Z,27.70
2019-02-17T07:00:50.947Z,27.60
2019-02-17T07:03:27.509Z,27.60
2019-02-17T07:06:15.939Z,28.00
2019-02-17T07:08:54.869Z,28.40
2019-02-17T07:11:33.239Z,28.20
2019-02-17T07:14:10.235Z,28.30
2019-02-17T07:16:47.037Z,28.50
2019-02-17T07:19:25.143Z,28.40
2019-02-17T07:22:11.716Z,28.20
2019-02-17T07:24:49.403Z,28.10
2019-02-17T07:27:26.299Z,28.10
2019-02-17T07:30:03.564Z,28.00
2019-02-17T07:32:40.670Z,28.10
2019-02-17T07:35:17.943Z,28.20
2019-02-17T07:37:54.344Z,28.30
2019-02-17T07:40:31.003Z,28.50
2019-02-17T07:43:08.106Z,28.80
2019-02-17T07:45:45.272Z,28.60
2019-02-17T07:48:22.609Z,28.60
2019-02-17T07:50:58.983Z,28.50
2019-02-17T07:53:35.075Z,28.40
2019-02-17T07:56:11.659Z,28.40
2019-02-17T07:58:48.554Z,28.30
2019-02-17T08:01:25.647Z,28.30
2019-02-17T08:04:02.090Z,28.10
2019-02-17T08:06:38.845Z,27.90
2019-02-17T08:09:16.356Z,27.90
2019-02-17T08:11:52.905Z,27.80
2019-02-17T08:14:29.415Z,27.80
2019-02-17T08:17:06.332Z,28.00
2019-02-17T08:19:43.602Z,28.10
2019-02-17T08:22:20.151Z,28.10
2019-02-17T08:24:57.164Z,28.00
2019-02-17T08:27:33.661Z,27.80
2019-02-17T08:30:10.912Z,27.70
2019-02-17T08:32:48.164Z,27.50
2019-02-17T08:35:26.316Z,27.50
2019-02-17T08:38:03.580Z,27.50
2019-02-17T08:40:41.144Z,27.20
2019-02-17T09:13:21.168Z,26.30
2019-02-17T09:15:58.507Z,23.10
2019-02-17T09:18:35.017Z,23.20
2019-02-17T09:21:11.766Z,23.50
2019-02-17T09:23:49.068Z,23.60
2019-02-17T09:26:25.607Z,23.40
2019-02-17T09:29:07.511Z,23.50
2019-02-17T09:31:44.519Z,23.40
2019-02-17T09:34:22.185Z,23.20
2019-02-17T09:36:59.119Z,23.40
2019-02-17T09:39:35.599Z,23.10
2019-02-17T09:42:12.524Z,23.10
2019-02-17T09:44:49.667Z,23.00
2019-02-17T09:47:25.763Z,23.10
2019-02-17T09:50:04.600Z,23.00
2019-02-17T09:52:41.601Z,23.00
2019-02-17T09:55:17.888Z,23.00
2019-02-17T09:57:54.780Z,23.00
2019-02-17T10:00:31.400Z,23.00
2019-02-17T10:03:08.541Z,22.90
2019-02-17T10:05:45.680Z,22.70
2019-02-17T10:08:22.077Z,22.60
2019-02-17T10:10:58.764Z,22.60
2019-02-17T10:13:42.490Z,22.90
2019-02-17T10:16:20.169Z,22.70
2019-02-17T10:18:57.003Z,22.90
2019-02-17T10:21:33.689Z,22.70
2019-02-17T10:24:10.544Z,23.00
2019-02-17T10:26:47.063Z,23.10
2019-02-17T10:29:23.754Z,23.10
2019-02-17T10:32:00.051Z,23.10
2019-02-17T10:34:39.244Z,23.20
2019-02-17T10:37:17.096Z,23.30
2019-02-17T10:39:54.082Z,23.30
2019-02-17T10:42:31.064Z,23.20
2019-02-17T10:45:08.273Z,23.20
2019-02-17T10:47:44.948Z,23.10
2019-02-17T10:50:21.968Z,23.10
2019-02-17T10:52:58.538Z,23.20
2019-02-17T10:55:35.252Z,23.20
2019-02-17T10:58:12.166Z,23.20
2019-02-17T11:00:48.820Z,23.20
2019-02-17T11:03:25.692Z,23.20
2019-02-17T11:06:02.388Z,23.20
2019-02-17T11:08:39.840Z,23.20
2019-02-17T11:11:16.706Z,23.10
2019-02-17T11:13:53.776Z,23.10
2019-02-17T11:16:30.754Z,23.00
2019-02-17T11:19:08.108Z,23.10
2019-02-17T11:21:45.635Z,23.10
2019-02-17T11:24:23.070Z,23.00
2019-02-17T11:27:00.347Z,23.10
2019-02-17T11:29:37.725Z,23.00
2019-02-17T11:32:15.991Z,23.20
2019-02-17T11:34:53.805Z,23.20
2019-02-17T11:37:30.713Z,23.20
2019-02-17T11:40:07.625Z,23.20
2019-02-17T11:42:44.794Z,23.00
2019-02-17T11:45:23.253Z,23.00
2019-02-17T11:48:00.857Z,23.10
2019-02-17T11:50:37.844Z,22.90
2019-02-17T11:53:14.775Z,22.80
2019-02-17T11:55:51.151Z,23.00
2019-02-17T11:58:27.709Z,23.10
2019-02-17T12:01:05.390Z,23.10
2019-02-17T12:03:42.893Z,23.20
2019-02-17T12:06:19.480Z,23.20
2019-02-17T12:08:56.293Z,23.20
2019-02-17T12:11:32.887Z,23.20
2019-02-17T12:14:09.385Z,23.20
2019-02-17T12:16:46.473Z,23.20
2019-02-17T12:19:22.969Z,23.30
2019-02-17T12:22:04.949Z,23.20
2019-02-17T12:25:01.876Z,23.20
2019-02-17T12:28:01.584Z,23.10
2019-02-17T12:30:38.702Z,23.10
2019-02-17T12:33:19.332Z,23.10
2019-02-17T12:35:54.183Z,23.00
2019-02-17T12:38:30.494Z,23.00
2019-02-17T12:41:07.367Z,23.00
2019-02-17T12:43:51.886Z,23.00
2019-02-17T12:46:29.105Z,23.00
2019-02-17T12:49:06.363Z,22.90
2019-02-17T12:51:43.000Z,22.90
2019-02-17T12:54:28.838Z,23.00
2019-02-17T12:56:58.424Z,23.00
2019-02-17T12:59:35.531Z,22.80
2019-02-17T13:02:12.421Z,23.00
2019-02-17T13:04:49.960Z,23.00
2019-02-17T13:07:26.656Z,22.90
2019-02-17T13:10:04.240Z,22.80
2019-02-17T13:12:40.419Z,22.80
2019-02-17T13:15:17.512Z,22.90
2019-02-17T13:17:55.346Z,22.90
2019-02-17T13:20:32.372Z,22.80
2019-02-17T13:23:09.550Z,22.80
2019-02-17T13:25:46.032Z,22.80
2019-02-17T13:28:22.999Z,22.80
2019-02-17T13:30:59.818Z,22.80
2019-02-17T13:33:39.159Z,22.80
2019-02-17T13:36:14.471Z,22.70
2019-02-17T13:38:52.182Z,22.70
2019-02-17T13:41:29.082Z,22.70
2019-02-17T13:44:05.700Z,22.80
2019-02-17T13:46:42.690Z,22.70
2019-02-17T13:49:19.104Z,22.60
2019-02-17T13:51:55.996Z,22.50
2019-02-17T13:54:32.721Z,22.50
2019-02-17T13:57:09.774Z,22.60
2019-02-17T13:59:46.603Z,22.50
2019-02-17T14:02:23.372Z,22.50
2019-02-17T14:05:00.052Z,22.60
2019-02-17T14:07:36.314Z,22.60
2019-02-17T14:10:14.306Z,22.50
2019-02-17T14:12:51.042Z,22.50
2019-02-17T14:15:28.297Z,22.60
2019-02-17T14:18:04.868Z,22.60
2019-02-17T14:20:41.645Z,22.50
2019-02-17T14:23:18.762Z,22.50
2019-02-17T14:25:55.566Z,22.40
2019-02-17T14:28:32.792Z,22.30
2019-02-17T14:31:09.914Z,22.30
2019-02-17T14:33:48.105Z,22.30
2019-02-17T14:36:25.188Z,22.40
2019-02-17T14:39:01.556Z,22.50
2019-02-17T14:41:40.114Z,22.30
2019-02-17T14:44:17.288Z,22.40
2019-02-17T14:46:55.942Z,22.40
2019-02-17T14:49:32.635Z,22.50
2019-02-17T14:52:09.564Z,22.50
2019-02-17T14:54:46.651Z,22.50
2019-02-17T14:57:23.029Z,22.40
2019-02-17T14:59:59.696Z,22.30
2019-02-17T15:02:37.941Z,22.20
2019-02-17T15:05:14.945Z,22.20
2019-02-17T15:07:51.748Z,22.20
2019-02-17T15:10:28.622Z,22.20
2019-02-17T15:13:05.023Z,22.30
2019-02-17T15:15:42.806Z,22.40
2019-02-17T15:18:19.890Z,22.40
2019-02-17T15:20:56.571Z,22.30
2019-02-17T15:23:33.060Z,22.30
2019-02-17T15:26:09.977Z,22.40
2019-02-17T15:28:51.283Z,22.40
2019-02-17T15:31:26.568Z,22.40
2019-02-17T15:34:03.703Z,22.40
2019-02-17T15:36:40.582Z,22.30
2019-02-17T15:39:17.747Z,22.30
2019-02-17T15:41:54.557Z,22.30
2019-02-17T15:44:31.326Z,22.30
2019-02-17T15:47:07.718Z,22.30
2019-02-17T15:49:44.546Z,22.30
2019-02-17T15:52:21.107Z,22.30
2019-02-17T15:54:57.733Z,22.20
2019-02-17T15:57:34.538Z,22.20
2019-02-17T16:00:12.988Z,22.30
2019-02-17T16:02:49.829Z,22.30
2019-02-17T16:05:26.496Z,22.20
2019-02-17T16:08:03.406Z,22.10
2019-02-17T16:10:40.138Z,22.10
2019-02-17T16:13:16.641Z,22.00
2019-02-17T16:15:53.504Z,22.20
2019-02-17T16:18:30.938Z,22.20
2019-02-17T16:21:07.729Z,22.20
2019-02-17T16:23:44.733Z,22.10
2019-02-17T16:26:21.443Z,22.20
2019-02-17T16:28:58.389Z,22.30
2019-02-17T16:31:35.081Z,22.20
2019-02-17T16:34:12.593Z,22.20
2019-02-17T16:36:49.427Z,22.30
2019-02-17T16:39:26.593Z,22.30
2019-02-17T16:42:03.480Z,22.10
2019-02-17T16:44:40.697Z,22.00
2019-02-17T16:47:17.396Z,22.10
2019-02-17T16:49:54.487Z,22.10
2019-02-17T16:52:31.400Z,22.10
2019-02-17T16:55:08.299Z,22.20
2019-02-17T16:57:45.429Z,22.10
2019-02-17T17:00:26.494Z,22.10
2019-02-17T17:03:03.069Z,22.10
2019-02-17T17:05:40.119Z,22.10
2019-02-17T17:08:16.962Z,22.20
2019-02-17T17:10:53.873Z,22.30
2019-02-17T17:13:30.731Z,22.30
2019-02-17T17:16:07.866Z,22.20
2019-02-17T17:18:44.583Z,22.20
2019-02-17T17:21:21.756Z,22.20
2019-02-17T17:23:58.641Z,22.20
2019-02-17T17:26:36.597Z,22.20
2019-02-17T17:29:13.058Z,22.20
2019-02-17T17:31:49.896Z,22.20
2019-02-17T17:34:27.069Z,22.20
2019-02-17T17:37:03.679Z,22.10
2019-02-17T17:39:40.509Z,22.10
2019-02-17T17:42:17.855Z,22.20
2019-02-17T17:44:54.772Z,22.10
2019-02-17T17:47:31.498Z,22.00
2019-02-17T17:50:08.656Z,22.10
2019-02-17T17:52:45.538Z,22.20
2019-02-17T17:55:22.407Z,22.20
2019-02-17T17:57:59.206Z,22.20
2019-02-17T18:00:36.545Z,22.20
2019-02-17T18:03:13.366Z,22.20
2019-02-17T18:05:50.514Z,22.10
2019-02-17T18:08:26.921Z,22.20
2019-02-17T18:11:03.877Z,22.20
2019-02-17T18:13:40.685Z,22.20
2019-02-17T18:16:17.729Z,22.20
2019-02-17T18:18:54.299Z,22.20
2019-02-17T18:21:31.581Z,22.10
2019-02-17T18:24:08.466Z,22.10
2019-02-17T18:26:46.397Z,22.00
2019-02-17T18:29:23.447Z,21.90
2019-02-17T18:32:00.604Z,21.90
2019-02-17T18:34:37.552Z,22.00
2019-02-17T18:37:14.599Z,22.00
2019-02-17T18:39:51.239Z,22.00
2019-02-17T18:42:27.922Z,22.10
2019-02-17T18:45:05.886Z,22.00
2019-02-17T18:47:42.976Z,22.00
2019-02-17T18:50:21.426Z,21.90
2019-02-17T18:52:58.266Z,22.00
2019-02-17T18:55:35.269Z,22.00
2019-02-17T18:58:12.417Z,22.00
2019-02-17T19:00:48.880Z,22.00
2019-02-17T19:03:25.537Z,22.00
2019-02-17T19:06:03.603Z,22.10
2019-02-17T19:08:40.727Z,22.00
2019-02-17T19:11:17.714Z,22.00
2019-02-17T19:13:54.499Z,21.90
2019-02-17T19:16:31.377Z,21.90
2019-02-17T19:19:09.557Z,22.00
2019-02-17T19:21:45.955Z,22.10
2019-02-17T19:24:22.821Z,22.10
2019-02-17T19:26:59.830Z,22.10
2019-02-17T19:29:36.621Z,22.00
2019-02-17T19:32:13.586Z,22.10
2019-02-17T19:34:50.067Z,22.00
2019-02-17T19:37:26.722Z,21.90
2019-02-17T19:40:03.043Z,21.90
2019-02-17T19:42:39.908Z,21.80
2019-02-17T19:45:17.067Z,21.90
2019-02-17T19:47:53.636Z,21.80
2019-02-17T19:50:31.064Z,21.70
2019-02-17T19:53:07.604Z,21.70
2019-02-17T19:55:45.144Z,21.70
2019-02-17T19:58:22.285Z,21.80
2019-02-17T20:00:59.224Z,21.90
2019-02-17T20:03:45.092Z,21.80
2019-02-17T20:06:24.252Z,21.80
2019-02-17T20:09:00.579Z,21.80
2019-02-17T20:11:38.677Z,21.80
2019-02-17T20:14:15.116Z,21.70
2019-02-17T20:16:53.019Z,21.70
2019-02-17T20:19:30.882Z,21.70
2019-02-17T20:22:07.619Z,21.80
2019-02-17T20:24:44.345Z,21.90
2019-02-17T20:27:21.116Z,21.90
2019-02-17T20:29:57.387Z,21.90
2019-02-17T20:32:33.706Z,21.90
2019-02-17T20:35:11.149Z,21.90
2019-02-17T20:37:48.026Z,21.90
2019-02-17T20:40:24.863Z,21.90
2019-02-17T20:43:01.070Z,21.90
2019-02-17T20:45:38.114Z,22.00
2019-02-17T20:48:15.034Z,21.90
2019-02-17T20:50:51.970Z,21.90
2019-02-17T20:53:28.933Z,21.90
2019-02-17T20:56:06.052Z,21.90
2019-02-17T20:58:42.843Z,21.90
2019-02-17T21:01:20.263Z,21.90
2019-02-17T21:03:57.928Z,21.80
2019-02-17T21:06:34.686Z,21.90
2019-02-17T21:09:11.644Z,21.90
2019-02-17T21:11:48.774Z,22.00
2019-02-17T21:14:25.421Z,22.00
2019-02-17T21:17:01.993Z,21.90
2019-02-17T21:19:38.921Z,21.90
2019-02-17T21:22:16.094Z,21.80
2019-02-17T21:24:52.823Z,21.80
2019-02-17T21:27:29.486Z,21.90
2019-02-17T21:30:06.841Z,21.80
2019-02-17T21:32:43.904Z,21.80
2019-02-17T21:35:20.731Z,21.80
2019-02-17T21:37:58.498Z,21.80
2019-02-17T21:40:34.708Z,21.80
2019-02-17T21:43:11.869Z,21.70
2019-02-17T21:45:48.995Z,21.80
2019-02-17T21:48:25.287Z,21.60
2019-02-17T21:51:01.931Z,21.60
2019-02-17T21:53:39.544Z,21.70
2019-02-17T21:56:16.544Z,21.70
2019-02-17T21:58:54.123Z,21.70
2019-02-17T22:01:30.530Z,21.70
2019-02-17T22:04:07.438Z,21.70
2019-02-17T22:06:44.343Z,21.70
2019-02-17T22:09:21.110Z,21.60
2019-02-17T22:11:57.992Z,21.70
2019-02-17T22:14:34.431Z,21.70
2019-02-17T22:17:11.502Z,21.70
2019-02-17T22:19:48.073Z,21.70
2019-02-17T22:22:24.978Z,21.70
2019-02-17T22:25:02.283Z,21.80
2019-02-17T22:27:39.391Z,21.80
2019-02-17T22:30:17.289Z,21.80
2019-02-17T22:32:54.181Z,21.70
2019-02-17T22:35:31.391Z,21.60
2019-02-17T22:38:08.127Z,21.60
2019-02-17T22:40:44.733Z,21.70
2019-02-17T22:43:22.485Z,21.60
2019-02-17T22:45:59.783Z,21.70
2019-02-17T22:48:36.153Z,21.70
2019-02-17T22:51:12.815Z,21.70
2019-02-17T22:53:49.473Z,21.60
2019-02-17T22:56:26.545Z,21.70
2019-02-17T22:59:03.415Z,21.70
2019-02-17T23:01:40.316Z,21.60
2019-02-17T23:04:17.169Z,21.60
2019-02-17T23:06:54.583Z,21.70
2019-02-17T23:09:31.320Z,21.70
2019-02-17T23:12:08.526Z,21.70
2019-02-17T23:14:45.665Z,21.70
2019-02-17T23:17:22.099Z,21.80
2019-02-17T23:19:58.660Z,21.80
2019-02-17T23:22:35.458Z,21.70
2019-02-17T23:25:12.420Z,21.80
2019-02-17T23:27:49.232Z,21.80
2019-02-17T23:30:27.780Z,21.80
2019-02-17T23:33:04.491Z,21.80
2019-02-17T23:35:41.589Z,21.80
2019-02-17T23:38:18.055Z,21.80
2019-02-17T23:40:55.063Z,21.80
2019-02-17T23:43:31.795Z,21.80
2019-02-17T23:46:09.144Z,21.80
2019-02-17T23:48:45.954Z,21.80
2019-02-17T23:51:23.036Z,21.90
2019-02-17T23:53:59.977Z,21.90
2019-02-17T23:56:36.880Z,21.90
2019-02-17T23:59:13.822Z,21.90
